Terminal Aerodrome Forecast
Issued by NWS Brownsville, TX

Home | Current Version | Previous Version | Text Only | Print | Product List | Glossary On
Versions: 1 2 3 4 5 6 7 8 9 10 11 12 13 14 15 16 17 18 19 20 21 22 23 24 25 26 27 28 29 30 31
000
FTUS44 KBRO 181720
TAFBRO
TAF
KBRO 181720Z 1818/1918 14020G26KT P6SM BKN020
     FM182000 14020G25KT P6SM SCT020
     FM190400 15013KT P6SM OVC007
     FM191000 16014KT 6SM BR OVC003
     FM191300 15016G23KT 6SM BR OVC007
     FM191600 17024G30KT P6SM SCT015=

USA.gov is the U.S. government's official web portal to all federal, state and local government web resources and services.